createdAt,value
2022-12-26T00:01:13.931Z,13.90
2022-12-26T00:03:43.357Z,13.90
2022-12-26T00:06:22.156Z,13.90
2022-12-26T00:08:50.101Z,13.90
2022-12-26T00:11:20.271Z,13.90
2022-12-26T00:13:50.418Z,13.90
2022-12-26T00:16:20.186Z,13.90
2022-12-26T00:18:53.699Z,13.90
2022-12-26T00:21:21.706Z,13.90
2022-12-26T00:23:57.051Z,13.80
2022-12-26T00:26:27.017Z,13.80
2022-12-26T00:28:57.548Z,13.80
2022-12-26T00:31:28.275Z,13.80
2022-12-26T00:33:58.729Z,13.70
2022-12-26T00:36:31.359Z,13.70
2022-12-26T00:39:00.704Z,13.70
2022-12-26T00:41:30.751Z,13.70
2022-12-26T00:44:00.408Z,13.70
2022-12-26T00:46:32.269Z,13.70
2022-12-26T00:49:04.407Z,13.70
2022-12-26T00:51:31.625Z,13.70
2022-12-26T00:53:58.772Z,13.70
2022-12-26T00:56:28.011Z,13.70
2022-12-26T00:58:55.111Z,13.70
2022-12-26T01:01:23.184Z,13.60
2022-12-26T01:03:51.343Z,13.70
2022-12-26T01:06:18.932Z,13.60
2022-12-26T01:08:49.102Z,13.60
2022-12-26T01:11:37.165Z,13.50
2022-12-26T01:14:08.514Z,13.50
2022-12-26T01:16:41.638Z,13.50
2022-12-26T01:19:09.443Z,13.50
2022-12-26T01:21:38.868Z,13.50
2022-12-26T01:24:06.629Z,13.50
2022-12-26T01:26:33.774Z,13.50
2022-12-26T01:29:03.438Z,13.40
2022-12-26T01:31:32.740Z,13.40
2022-12-26T01:34:04.451Z,13.40
2022-12-26T01:36:31.623Z,13.40
2022-12-26T01:38:58.890Z,13.40
2022-12-26T01:41:33.229Z,13.30
2022-12-26T01:44:01.864Z,13.30
2022-12-26T01:46:42.675Z,13.30
2022-12-26T01:49:37.624Z,13.30
2022-12-26T01:52:11.998Z,13.30
2022-12-26T01:54:45.693Z,13.30
2022-12-26T01:57:30.106Z,13.20
2022-12-26T02:00:01.829Z,13.30
2022-12-26T02:02:30.363Z,13.20
2022-12-26T02:05:18.366Z,13.20
2022-12-26T02:07:46.555Z,13.20
2022-12-26T02:10:24.144Z,13.20
2022-12-26T02:12:51.512Z,13.20
2022-12-26T02:15:18.897Z,13.20
2022-12-26T02:17:53.131Z,13.20
2022-12-26T02:20:24.758Z,13.20
2022-12-26T02:23:16.362Z,13.10
2022-12-26T02:26:17.931Z,13.10
2022-12-26T02:29:06.599Z,13.10
2022-12-26T02:32:11.465Z,13.10
2022-12-26T02:34:56.571Z,13.10
2022-12-26T02:37:34.913Z,13.00
2022-12-26T02:40:20.658Z,13.00
2022-12-26T02:43:30.623Z,13.00
2022-12-26T02:46:36.156Z,13.00
2022-12-26T02:49:28.674Z,12.90
2022-12-26T02:52:37.616Z,12.90
2022-12-26T02:55:33.277Z,12.90
2022-12-26T02:58:37.980Z,12.90
2022-12-26T03:01:32.175Z,12.90
2022-12-26T03:04:21.095Z,12.90
2022-12-26T03:07:35.869Z,12.90
2022-12-26T03:10:26.064Z,12.80
2022-12-26T03:13:11.910Z,12.80
2022-12-26T03:16:07.718Z,12.80
2022-12-26T03:18:58.071Z,12.70
2022-12-26T03:21:34.815Z,12.70
2022-12-26T03:24:01.950Z,12.70
2022-12-26T03:26:40.896Z,12.70
2022-12-26T03:29:33.194Z,12.70
2022-12-26T03:32:04.407Z,12.70
2022-12-26T03:34:31.829Z,12.60
2022-12-26T03:37:48.605Z,12.60
2022-12-26T03:41:05.368Z,12.60
2022-12-26T03:43:57.069Z,12.60
2022-12-26T03:47:22.484Z,12.60
2022-12-26T03:50:17.190Z,12.60
2022-12-26T03:53:16.394Z,12.60
2022-12-26T03:56:21.076Z,12.50
2022-12-26T03:59:30.641Z,12.50
2022-12-26T04:02:25.479Z,12.60
2022-12-26T04:05:14.387Z,12.60
2022-12-26T04:08:08.331Z,12.50
2022-12-26T04:11:04.533Z,12.50
2022-12-26T04:14:30.152Z,12.50
2022-12-26T04:17:18.948Z,12.50
2022-12-26T04:20:13.705Z,12.50
2022-12-26T04:23:29.983Z,12.50
2022-12-26T04:26:26.182Z,12.50
2022-12-26T04:29:14.151Z,12.50
2022-12-26T04:32:09.575Z,12.50
2022-12-26T04:35:04.264Z,12.50
2022-12-26T04:37:52.417Z,12.50
2022-12-26T04:40:44.929Z,12.50
2022-12-26T04:43:47.569Z,12.50
2022-12-26T04:46:23.648Z,12.50
2022-12-26T04:49:11.755Z,12.60
2022-12-26T04:51:39.091Z,12.60
2022-12-26T04:54:11.469Z,12.50
2022-12-26T04:56:38.593Z,12.50
2022-12-26T04:59:05.782Z,12.60
2022-12-26T05:01:51.634Z,12.60
2022-12-26T05:04:39.787Z,12.60
2022-12-26T05:07:33.780Z,12.60
2022-12-26T05:10:01.767Z,12.60
2022-12-26T05:12:29.000Z,12.60
2022-12-26T05:15:03.391Z,12.60
2022-12-26T05:17:59.868Z,12.60
2022-12-26T05:20:45.801Z,12.60
2022-12-26T05:23:40.012Z,12.60
2022-12-26T05:26:33.809Z,12.60
2022-12-26T05:29:03.987Z,12.60
2022-12-26T05:31:35.935Z,12.60
2022-12-26T05:34:10.744Z,12.50
2022-12-26T05:36:48.159Z,12.50
2022-12-26T05:39:18.063Z,12.50
2022-12-26T05:41:45.270Z,12.50
2022-12-26T05:44:14.768Z,12.50
2022-12-26T05:46:44.456Z,12.50
2022-12-26T05:49:11.689Z,12.50
2022-12-26T05:51:39.090Z,12.50
2022-12-26T05:54:08.480Z,12.60
2022-12-26T05:56:37.663Z,12.60
2022-12-26T05:59:04.811Z,12.60
2022-12-26T06:01:34.289Z,12.60
2022-12-26T06:04:01.771Z,12.60
2022-12-26T06:06:29.474Z,12.60
2022-12-26T06:08:59.117Z,12.60
2022-12-26T06:11:33.194Z,12.60
2022-12-26T06:14:01.984Z,12.60
2022-12-26T06:16:29.582Z,12.60
2022-12-26T06:18:58.991Z,12.60
2022-12-26T06:21:26.327Z,12.60
2022-12-26T06:23:55.777Z,12.60
2022-12-26T06:26:27.592Z,12.60
2022-12-26T06:28:54.704Z,12.60
2022-12-26T06:31:24.487Z,12.60
2022-12-26T06:33:55.790Z,12.60
2022-12-26T06:36:25.404Z,12.60
2022-12-26T06:38:53.229Z,12.70
2022-12-26T06:41:21.789Z,12.70
2022-12-26T06:43:49.681Z,12.70
2022-12-26T06:46:20.237Z,12.70
2022-12-26T06:48:50.298Z,12.70
2022-12-26T06:51:20.807Z,12.70
2022-12-26T06:53:48.959Z,12.70
2022-12-26T06:56:24.990Z,12.70
2022-12-26T06:59:00.515Z,12.70
2022-12-26T07:01:32.146Z,12.70
2022-12-26T07:04:06.983Z,12.70
2022-12-26T07:06:36.836Z,12.70
2022-12-26T07:09:10.817Z,12.70
2022-12-26T07:11:42.776Z,12.70
2022-12-26T07:14:12.603Z,12.70
2022-12-26T07:16:43.998Z,12.70
2022-12-26T07:19:13.071Z,12.70
2022-12-26T07:21:41.381Z,12.60
2022-12-26T07:24:18.479Z,12.70
2022-12-26T07:26:46.922Z,12.70
2022-12-26T07:29:14.915Z,12.60
2022-12-26T07:31:42.547Z,12.60
2022-12-26T07:34:09.949Z,12.60
2022-12-26T07:36:39.525Z,12.60
2022-12-26T07:39:09.422Z,12.60
2022-12-26T07:41:55.098Z,12.70
2022-12-26T07:44:22.229Z,12.70
2022-12-26T07:46:51.553Z,12.60
2022-12-26T07:49:20.921Z,12.60
2022-12-26T07:51:48.363Z,12.70
2022-12-26T07:54:18.465Z,12.70
2022-12-26T07:56:45.947Z,12.70
2022-12-26T07:59:20.144Z,12.60
2022-12-26T08:01:49.447Z,12.60
2022-12-26T08:04:19.068Z,12.60
2022-12-26T08:06:47.318Z,12.50
2022-12-26T08:09:18.443Z,12.50
2022-12-26T08:11:50.360Z,12.50
2022-12-26T08:14:19.691Z,12.50
2022-12-26T08:16:51.314Z,12.50
2022-12-26T08:19:20.533Z,12.40
2022-12-26T08:21:50.007Z,12.40
2022-12-26T08:24:19.753Z,12.40
2022-12-26T08:26:52.246Z,12.40
2022-12-26T08:29:24.280Z,12.40
2022-12-26T08:31:53.776Z,12.40
2022-12-26T08:34:25.720Z,12.30
2022-12-26T08:36:52.962Z,12.30
2022-12-26T08:39:22.437Z,12.30
2022-12-26T08:41:49.546Z,12.30
2022-12-26T08:44:27.341Z,12.30
2022-12-26T08:46:55.269Z,12.30
2022-12-26T08:49:22.396Z,12.30
2022-12-26T08:51:49.733Z,12.30
2022-12-26T08:54:16.862Z,12.30
2022-12-26T08:56:44.019Z,12.30
2022-12-26T08:59:14.709Z,12.30
2022-12-26T09:01:41.998Z,12.30
2022-12-26T09:04:09.349Z,12.30
2022-12-26T09:06:38.608Z,12.30
2022-12-26T09:09:08.508Z,12.30
2022-12-26T09:11:35.722Z,12.30
2022-12-26T09:14:05.783Z,12.40
2022-12-26T09:16:43.027Z,12.40
2022-12-26T09:19:17.639Z,12.40
2022-12-26T09:21:45.615Z,12.40
2022-12-26T09:24:17.864Z,12.40
2022-12-26T09:26:45.215Z,12.40
2022-12-26T09:29:15.318Z,12.40
2022-12-26T09:31:42.557Z,12.50
2022-12-26T09:34:09.871Z,12.50
2022-12-26T09:36:40.066Z,12.50
2022-12-26T09:39:13.564Z,12.50
2022-12-26T09:41:46.250Z,12.50
2022-12-26T09:44:37.861Z,12.60
2022-12-26T09:47:20.581Z,12.60
2022-12-26T09:50:13.166Z,12.70
2022-12-26T09:52:50.791Z,12.70
2022-12-26T09:55:49.094Z,12.70
2022-12-26T09:58:30.487Z,12.70
2022-12-26T10:01:13.259Z,12.70
2022-12-26T10:04:09.195Z,12.70
2022-12-26T10:06:43.872Z,12.70
2022-12-26T10:09:20.231Z,12.70
2022-12-26T10:11:56.249Z,12.70
2022-12-26T10:14:32.496Z,12.70
2022-12-26T10:17:26.897Z,12.70
2022-12-26T10:20:00.190Z,12.70
2022-12-26T10:22:39.908Z,12.70
2022-12-26T10:25:20.012Z,12.70
2022-12-26T10:27:49.888Z,12.70
2022-12-26T10:30:34.299Z,12.70
2022-12-26T10:33:12.748Z,12.80
2022-12-26T10:35:44.305Z,12.80
2022-12-26T10:38:28.177Z,12.80
2022-12-26T10:41:00.627Z,12.80
2022-12-26T10:43:33.900Z,12.80
2022-12-26T10:46:03.916Z,12.80
2022-12-26T10:48:31.098Z,12.80
2022-12-26T10:50:58.311Z,12.80
2022-12-26T10:53:25.720Z,12.80
2022-12-26T10:55:57.156Z,12.80
2022-12-26T10:58:34.529Z,12.80
2022-12-26T11:01:34.895Z,12.80
2022-12-26T11:04:05.325Z,12.80
2022-12-26T11:06:43.422Z,12.90
2022-12-26T11:09:39.002Z,12.80
2022-12-26T11:12:21.822Z,12.90
2022-12-26T11:15:02.055Z,12.90
2022-12-26T11:17:33.595Z,12.90
2022-12-26T11:20:23.853Z,12.90
2022-12-26T11:22:51.869Z,12.90
2022-12-26T11:25:24.950Z,12.90
2022-12-26T11:27:57.984Z,12.90
2022-12-26T11:30:33.849Z,12.90
2022-12-26T11:33:25.653Z,12.90
2022-12-26T11:36:17.042Z,12.90
2022-12-26T11:38:47.169Z,12.70
2022-12-26T11:41:32.245Z,12.70
2022-12-26T11:44:12.377Z,12.60
2022-12-26T11:46:54.541Z,12.60
2022-12-26T11:49:30.586Z,12.50
2022-12-26T11:52:00.739Z,12.40
2022-12-26T11:54:29.685Z,12.30
2022-12-26T11:57:06.581Z,12.20
2022-12-26T11:59:33.785Z,12.10
2022-12-26T12:02:33.118Z,12.10
2022-12-26T12:05:15.924Z,12.00
2022-12-26T12:07:57.943Z,11.90
2022-12-26T12:10:48.407Z,11.90
2022-12-26T12:13:49.923Z,11.90
2022-12-26T12:16:38.015Z,11.90
2022-12-26T12:19:13.977Z,11.90
2022-12-26T12:21:46.722Z,11.90
2022-12-26T12:24:16.907Z,11.90
2022-12-26T12:27:09.617Z,11.80
2022-12-26T12:29:58.165Z,11.80
2022-12-26T12:32:28.348Z,11.80
2022-12-26T12:35:14.406Z,11.80
2022-12-26T12:37:50.527Z,11.80
2022-12-26T12:40:50.233Z,11.70
2022-12-26T12:43:36.231Z,11.70
2022-12-26T12:46:35.776Z,11.70
2022-12-26T12:49:11.657Z,11.70
2022-12-26T12:52:03.524Z,11.60
2022-12-26T12:54:57.914Z,11.60
2022-12-26T12:57:48.400Z,11.50
2022-12-26T13:00:19.560Z,11.40
2022-12-26T13:02:54.655Z,11.30
2022-12-26T13:05:42.645Z,11.30
2022-12-26T13:08:21.090Z,11.30
2022-12-26T13:10:57.864Z,11.20
2022-12-26T13:13:41.440Z,11.20
2022-12-26T13:16:19.073Z,11.20
2022-12-26T13:19:13.286Z,11.10
2022-12-26T13:21:41.020Z,11.20
2022-12-26T13:24:28.544Z,11.10
2022-12-26T13:27:05.741Z,11.20
2022-12-26T13:29:45.387Z,11.10
2022-12-26T13:32:24.481Z,11.10
2022-12-26T13:34:57.385Z,11.10
2022-12-26T13:37:39.887Z,11.10
2022-12-26T13:40:19.479Z,11.10
2022-12-26T13:43:21.608Z,11.00
2022-12-26T13:45:50.701Z,11.00
2022-12-26T13:48:17.831Z,10.90
2022-12-26T13:51:00.116Z,10.90
2022-12-26T13:53:37.290Z,10.80
2022-12-26T13:56:30.994Z,10.70
2022-12-26T13:59:32.610Z,10.70
2022-12-26T14:02:22.738Z,10.60
2022-12-26T14:05:38.847Z,10.60
2022-12-26T14:08:13.685Z,10.50
2022-12-26T14:10:48.340Z,10.40
2022-12-26T14:13:38.971Z,10.40
2022-12-26T14:16:13.977Z,10.40
2022-12-26T14:19:22.452Z,10.30
2022-12-26T14:21:55.554Z,10.30
2022-12-26T14:24:49.882Z,10.30
2022-12-26T14:27:32.069Z,10.30
2022-12-26T14:30:30.725Z,10.20
2022-12-26T14:33:22.086Z,10.10
2022-12-26T14:36:06.584Z,10.10
2022-12-26T14:38:54.391Z,10.10
2022-12-26T14:41:41.028Z,10.10
2022-12-26T14:44:18.262Z,10.10
2022-12-26T14:46:48.142Z,10.10
2022-12-26T14:49:22.774Z,10.00
2022-12-26T14:51:50.433Z,10.00
2022-12-26T14:54:36.914Z,10.00
2022-12-26T14:57:37.950Z,10.00
2022-12-26T15:00:29.631Z,9.90
2022-12-26T15:03:00.027Z,9.90
2022-12-26T15:05:31.668Z,9.90
2022-12-26T15:08:20.540Z,9.80
2022-12-26T15:10:53.985Z,9.80
2022-12-26T15:13:42.491Z,9.70
2022-12-26T15:16:29.767Z,9.60
2022-12-26T15:19:27.848Z,9.60
2022-12-26T15:22:27.492Z,9.50
2022-12-26T15:25:20.706Z,9.30
2022-12-26T15:28:15.833Z,9.20
2022-12-26T15:30:45.564Z,9.10
2022-12-26T15:33:26.513Z,9.10
2022-12-26T15:36:35.031Z,9.00
2022-12-26T15:39:27.327Z,8.90
2022-12-26T15:42:15.571Z,8.80
2022-12-26T15:45:07.897Z,8.70
2022-12-26T15:47:58.426Z,8.60
2022-12-26T15:51:02.175Z,8.60
2022-12-26T15:53:59.268Z,8.50
2022-12-26T15:57:02.649Z,8.50
2022-12-26T16:00:01.934Z,8.40
2022-12-26T16:02:31.687Z,8.40
2022-12-26T16:05:47.785Z,8.30
2022-12-26T16:08:33.044Z,8.30
2022-12-26T16:11:15.689Z,8.20
2022-12-26T16:14:03.123Z,8.20
2022-12-26T16:16:38.256Z,8.10
2022-12-26T16:19:28.691Z,8.10
2022-12-26T16:22:31.069Z,8.00
2022-12-26T16:24:58.298Z,8.00
2022-12-26T16:27:32.299Z,7.90
2022-12-26T16:30:11.623Z,7.90
2022-12-26T16:32:43.412Z,7.90
2022-12-26T16:35:26.482Z,7.90
2022-12-26T16:37:57.036Z,7.90
2022-12-26T16:40:29.515Z,7.90
2022-12-26T16:43:26.908Z,7.80
2022-12-26T16:45:58.836Z,7.80
2022-12-26T16:48:33.133Z,7.70
2022-12-26T16:51:03.382Z,7.70
2022-12-26T16:53:38.954Z,7.60
2022-12-26T16:56:22.614Z,7.60
2022-12-26T16:58:55.312Z,7.60
2022-12-26T17:01:25.036Z,7.60
2022-12-26T17:03:59.667Z,7.50
2022-12-26T17:06:34.296Z,7.50
2022-12-26T17:09:16.902Z,7.50
2022-12-26T17:11:59.111Z,7.40
2022-12-26T17:14:33.634Z,7.40
2022-12-26T17:17:04.784Z,7.30
2022-12-26T17:19:35.980Z,7.30
2022-12-26T17:22:15.235Z,7.30
2022-12-26T17:24:43.533Z,7.30
2022-12-26T17:27:26.011Z,7.20
2022-12-26T17:30:00.618Z,7.20
2022-12-26T17:32:27.681Z,7.20
2022-12-26T17:34:55.198Z,7.10
2022-12-26T17:37:25.260Z,7.10
2022-12-26T17:40:19.817Z,7.10
2022-12-26T17:43:07.617Z,7.10
2022-12-26T17:45:46.370Z,7.10
2022-12-26T17:48:14.712Z,7.10
2022-12-26T17:50:53.610Z,7.00
2022-12-26T17:53:26.035Z,7.00
2022-12-26T17:55:57.168Z,7.00
2022-12-26T17:58:26.590Z,7.00
2022-12-26T18:00:54.389Z,7.00
2022-12-26T18:03:24.981Z,6.90
2022-12-26T18:05:56.386Z,6.90
2022-12-26T18:08:28.306Z,6.90
2022-12-26T18:10:55.941Z,6.80
2022-12-26T18:13:25.541Z,6.80
2022-12-26T18:15:57.720Z,6.80
2022-12-26T18:18:38.389Z,6.80
2022-12-26T18:21:08.492Z,6.80
2022-12-26T18:23:35.870Z,6.80
2022-12-26T18:26:06.703Z,6.70
2022-12-26T18:28:35.192Z,6.70
2022-12-26T18:31:04.924Z,6.70
2022-12-26T18:33:32.040Z,6.70
2022-12-26T18:36:07.293Z,6.80
2022-12-26T18:38:37.489Z,6.80
2022-12-26T18:41:07.388Z,6.80
2022-12-26T18:43:34.525Z,6.80
2022-12-26T18:46:04.221Z,6.80
2022-12-26T18:48:31.463Z,6.80
2022-12-26T18:51:02.760Z,6.80
2022-12-26T18:53:32.439Z,6.70
2022-12-26T18:55:59.661Z,6.70
2022-12-26T18:58:33.861Z,6.70
2022-12-26T19:01:03.095Z,6.70
2022-12-26T19:03:32.592Z,6.70
2022-12-26T19:05:59.740Z,6.70
2022-12-26T19:08:26.892Z,6.60
2022-12-26T19:10:54.091Z,6.60
2022-12-26T19:13:23.327Z,6.60
2022-12-26T19:15:50.473Z,6.60
2022-12-26T19:18:17.599Z,6.60
2022-12-26T19:20:45.109Z,6.60
2022-12-26T19:23:14.516Z,6.60
2022-12-26T19:25:41.705Z,6.60
2022-12-26T19:28:08.907Z,6.60
2022-12-26T19:30:39.326Z,6.60
2022-12-26T19:33:07.192Z,6.60
2022-12-26T19:35:36.636Z,6.60
2022-12-26T19:38:08.199Z,6.50
2022-12-26T19:40:35.329Z,6.50
2022-12-26T19:43:04.706Z,6.50
2022-12-26T19:45:32.381Z,6.50
2022-12-26T19:48:01.873Z,6.50
2022-12-26T19:50:29.034Z,6.50
2022-12-26T19:52:56.267Z,6.50
2022-12-26T19:55:23.494Z,6.40
2022-12-26T19:57:50.690Z,6.40
2022-12-26T20:00:20.525Z,6.40
2022-12-26T20:02:49.951Z,6.40
2022-12-26T20:05:21.756Z,6.40
2022-12-26T20:07:53.432Z,6.40
2022-12-26T20:10:20.636Z,6.40
2022-12-26T20:12:50.221Z,6.40
2022-12-26T20:15:17.425Z,6.40
2022-12-26T20:17:47.112Z,6.30
2022-12-26T20:20:16.853Z,6.30
2022-12-26T20:22:48.148Z,6.30
2022-12-26T20:25:19.974Z,6.30
2022-12-26T20:27:52.135Z,6.30
2022-12-26T20:30:21.784Z,6.30
2022-12-26T20:32:51.019Z,6.30
2022-12-26T20:35:22.651Z,6.30
2022-12-26T20:37:52.171Z,6.30
2022-12-26T20:40:25.339Z,6.30
2022-12-26T20:42:52.711Z,6.30
2022-12-26T20:45:22.272Z,6.30
2022-12-26T20:47:49.612Z,6.30
2022-12-26T20:50:26.721Z,6.30
2022-12-26T20:52:56.102Z,6.30
2022-12-26T20:55:28.979Z,6.30
2022-12-26T20:57:58.227Z,6.30
2022-12-26T21:00:30.879Z,6.20
2022-12-26T21:02:58.168Z,6.20
2022-12-26T21:05:27.572Z,6.30
2022-12-26T21:07:54.708Z,6.30
2022-12-26T21:10:24.398Z,6.30
2022-12-26T21:12:53.845Z,6.20
2022-12-26T21:15:21.042Z,6.30
2022-12-26T21:17:50.358Z,6.30
2022-12-26T21:20:17.611Z,6.30
2022-12-26T21:22:44.749Z,6.30
2022-12-26T21:25:11.914Z,6.30
2022-12-26T21:27:42.755Z,6.30
2022-12-26T21:30:13.196Z,6.30
2022-12-26T21:32:42.527Z,6.30
2022-12-26T21:35:09.676Z,6.30
2022-12-26T21:37:48.411Z,6.30
2022-12-26T21:40:18.247Z,6.30
2022-12-26T21:42:45.710Z,6.30
2022-12-26T21:45:15.503Z,6.20
2022-12-26T21:47:42.825Z,6.20
2022-12-26T21:50:10.162Z,6.20
2022-12-26T21:52:39.518Z,6.20
2022-12-26T21:55:25.414Z,6.20
2022-12-26T21:57:56.550Z,6.30
2022-12-26T22:00:26.255Z,6.30
2022-12-26T22:03:14.180Z,6.30
2022-12-26T22:05:42.491Z,6.30
2022-12-26T22:08:15.538Z,6.30
2022-12-26T22:11:06.254Z,6.30
2022-12-26T22:13:42.337Z,6.30
2022-12-26T22:16:13.994Z,6.30
2022-12-26T22:18:47.526Z,6.30
2022-12-26T22:21:19.519Z,6.30
2022-12-26T22:23:50.430Z,6.30
2022-12-26T22:26:18.944Z,6.30
2022-12-26T22:28:46.630Z,6.30
2022-12-26T22:31:27.464Z,6.30
2022-12-26T22:33:59.534Z,6.30
2022-12-26T22:36:30.591Z,6.30
2022-12-26T22:38:59.026Z,6.30
2022-12-26T22:41:31.011Z,6.30
2022-12-26T22:43:58.294Z,6.30
2022-12-26T22:46:31.473Z,6.30
2022-12-26T22:49:06.693Z,6.30
2022-12-26T22:51:36.198Z,6.30
2022-12-26T22:54:03.434Z,6.30
2022-12-26T22:56:30.809Z,6.30
2022-12-26T22:59:02.984Z,6.30
2022-12-26T23:01:32.531Z,6.40
2022-12-26T23:04:01.304Z,6.30
2022-12-26T23:06:31.716Z,6.40
2022-12-26T23:09:03.750Z,6.40
2022-12-26T23:11:35.041Z,6.40
2022-12-26T23:14:05.026Z,6.40
2022-12-26T23:16:45.068Z,6.40
2022-12-26T23:20:03.320Z,6.40
2022-12-26T23:22:30.943Z,6.40
2022-12-26T23:24:58.153Z,6.50
2022-12-26T23:27:43.874Z,6.50
2022-12-26T23:30:20.211Z,6.50
2022-12-26T23:32:50.651Z,6.50
2022-12-26T23:35:21.924Z,6.50
2022-12-26T23:37:54.572Z,6.50
2022-12-26T23:40:22.517Z,6.50
2022-12-26T23:42:49.630Z,6.50
2022-12-26T23:45:17.043Z,6.60
2022-12-26T23:47:45.524Z,6.60
2022-12-26T23:50:15.225Z,6.60
2022-12-26T23:52:47.553Z,6.60
2022-12-26T23:55:16.985Z,6.60
2022-12-26T23:57:44.170Z,6.60
